Time,TemperatureF,DewpointF,PressureIn,WindDirection,WindDirectionDegrees,WindSpeedMPH,WindSpeedGustMPH,Humidity,HourlyPrecipIn,Conditions,Clouds,dailyrainin,SoftwareType,DateUTC
2013-10-20 00:23:00,44.0,39.0,-100.00,SW,235,2.0,8.0,85,-99.99,,,-99.99,,2013-10-20 05:23:00,
2013-10-20 00:52:00,44.0,40.0,-100.00,SW,215,2.0,9.0,87,-99.99,,,-99.99,,2013-10-20 05:52:00,
2013-10-20 01:22:00,43.0,40.0,-100.00,SSW,210,1.0,6.0,88,-99.99,,,-99.99,,2013-10-20 06:22:00,
2013-10-20 01:52:00,43.0,40.0,-100.00,SSW,205,1.0,4.0,90,-99.99,,,-99.99,,2013-10-20 06:52:00,
2013-10-20 02:22:00,42.0,40.0,-100.00,South,175,4.0,8.0,92,-99.99,,,-99.99,,2013-10-20 07:22:00,
2013-10-20 02:52:00,42.0,40.0,-100.00,SSW,210,0.0,5.0,94,-99.99,,,-99.99,,2013-10-20 07:52:00,
2013-10-20 03:22:00,41.0,40.0,-100.00,South,190,0.0,4.0,95,-99.99,,,-99.99,,2013-10-20 08:22:00,
2013-10-20 03:52:00,41.0,39.0,-100.00,SSE,165,1.0,4.0,95,-99.99,,,-99.99,,2013-10-20 08:52:00,
2013-10-20 04:21:00,40.0,39.0,-100.00,SE,130,0.0,3.0,95,-99.99,,,-99.99,,2013-10-20 09:21:00,
2013-10-20 04:53:00,39.0,38.0,-100.00,SSE,155,2.0,3.0,95,-99.99,,,-99.99,,2013-10-20 09:53:00,
2013-10-20 05:23:00,39.0,37.0,-100.00,South,175,1.0,4.0,95,-99.99,,,-99.99,,2013-10-20 10:23:00,
2013-10-20 05:53:00,39.0,37.0,-100.00,South,170,1.0,4.0,95,-99.99,,,-99.99,,2013-10-20 10:53:00,
2013-10-20 06:22:00,38.0,37.0,-100.00,SSE,165,1.0,4.0,95,-99.99,,,-99.99,,2013-10-20 11:22:00,
2013-10-20 06:52:00,38.0,37.0,-100.00,ESE,110,0.0,2.0,95,-99.99,,,-99.99,,2013-10-20 11:52:00,
2013-10-20 07:22:00,38.0,37.0,-100.00,SSE,165,0.0,1.0,96,-99.99,,,-99.99,,2013-10-20 12:22:00,
2013-10-20 07:52:00,38.0,37.0,-100.00,SE,135,0.0,2.0,96,-99.99,,,-99.99,,2013-10-20 12:52:00,
2013-10-20 08:21:00,39.0,38.0,-100.00,SSE,160,1.0,4.0,96,-99.99,,,-99.99,,2013-10-20 13:21:00,
2013-10-20 08:52:00,44.0,42.0,-100.00,South,170,1.0,4.0,96,-99.99,,,-99.99,,2013-10-20 13:52:00,
2013-10-20 09:22:00,45.0,44.0,-100.00,SSE,165,1.0,7.0,96,-99.99,,,-99.99,,2013-10-20 14:22:00,
2013-10-20 09:52:00,48.0,47.0,-100.00,SSE,155,2.0,9.0,96,-99.99,,,-99.99,,2013-10-20 14:52:00,
2013-10-20 10:22:00,52.0,47.0,-100.00,SW,215,4.0,11.0,84,-99.99,,,-99.99,,2013-10-20 15:22:00,
2013-10-20 10:54:00,56.0,44.0,-100.00,SW,220,5.0,14.0,63,-99.99,,,-99.99,,2013-10-20 15:54:00,
2013-10-20 11:24:00,59.0,44.0,-100.00,West,265,0.0,10.0,58,-99.99,,,-99.99,,2013-10-20 16:24:00,
2013-10-20 11:54:00,61.0,45.0,-100.00,WSW,250,0.0,0.0,55,-99.99,,,-99.99,,2013-10-20 16:54:00,
2013-10-20 12:23:00,62.0,44.0,-100.00,WSW,240,0.0,0.0,52,-99.99,,,-99.99,,2013-10-20 17:23:00,
2013-10-20 12:52:00,64.0,44.0,-100.00,WSW,245,0.0,0.0,48,-99.99,,,-99.99,,2013-10-20 17:52:00,
2013-10-20 13:22:00,67.0,45.0,-100.00,SW,225,0.0,0.0,45,-99.99,,,-99.99,,2013-10-20 18:22:00,
2013-10-20 13:52:00,68.0,45.0,-100.00,SW,230,0.0,0.0,43,-99.99,,,-99.99,,2013-10-20 18:52:00,
2013-10-20 14:22:00,70.0,45.0,-100.00,SSW,210,0.0,0.0,41,-99.99,,,-99.99,,2013-10-20 19:22:00,
2013-10-20 14:52:00,71.0,44.0,-100.00,SW,235,0.0,0.0,38,-99.99,,,-99.99,,2013-10-20 19:52:00,
2013-10-20 15:22:00,71.0,44.0,-100.00,WSW,245,0.0,0.0,37,-99.99,,,-99.99,,2013-10-20 20:22:00,
2013-10-20 15:52:00,71.0,43.0,-100.00,WSW,240,0.0,0.0,36,-99.99,,,-99.99,,2013-10-20 20:52:00,
2013-10-20 16:22:00,72.0,43.0,-100.00,West,260,0.0,0.0,36,-99.99,,,-99.99,,2013-10-20 21:22:00,
2013-10-20 16:54:00,71.0,42.0,-100.00,WSW,245,0.0,0.0,35,-99.99,,,-99.99,,2013-10-20 21:54:00,
2013-10-20 17:23:00,71.0,42.0,-100.00,SW,235,0.0,0.0,35,-99.99,,,-99.99,,2013-10-20 22:23:00,
2013-10-20 17:53:00,71.0,41.0,-100.00,WSW,245,0.0,0.0,34,-99.99,,,-99.99,,2013-10-20 22:53:00,
2013-10-20 18:22:00,69.0,40.0,-100.00,WSW,255,0.0,0.0,35,-99.99,,,-99.99,,2013-10-20 23:22:00,
2013-10-20 18:52:00,65.0,40.0,-100.00,WSW,240,0.0,0.0,40,-99.99,,,-99.99,,2013-10-20 23:52:00,
2013-10-20 19:22:00,63.0,41.0,-100.00,WSW,240,0.0,0.0,43,-99.99,,,-99.99,,2013-10-21 00:22:00,
2013-10-20 19:52:00,63.0,41.0,-100.00,WSW,250,0.0,0.0,44,-99.99,,,-99.99,,2013-10-21 00:52:00,
2013-10-20 20:02:00,63.0,41.0,-100.00,WSW,250,0.0,0.0,44,-99.99,,,-99.99,,2013-10-21 01:02:00,
2013-10-20 20:21:00,61.0,41.0,-100.00,WSW,250,0.0,0.0,47,-99.99,,,-99.99,,2013-10-21 01:21:00,
2013-10-20 20:52:00,61.0,41.0,-100.00,WSW,250,0.0,0.0,47,-99.99,,,-99.99,,2013-10-21 01:52:00,
2013-10-20 21:22:00,61.0,41.0,-100.00,WSW,240,0.0,0.0,48,-99.99,,,-99.99,,2013-10-21 02:22:00,
2013-10-20 21:52:00,60.0,41.0,-100.00,SW,235,0.0,0.0,50,-99.99,,,-99.99,,2013-10-21 02:52:00,
2013-10-20 22:22:00,60.0,41.0,-100.00,SW,230,0.0,0.0,51,-99.99,,,-99.99,,2013-10-21 03:22:00,
2013-10-20 22:55:00,59.0,42.0,-100.00,West,260,0.0,0.0,53,-99.99,,,-99.99,,2013-10-21 03:55:00,
2013-10-20 23:24:00,59.0,42.0,-100.00,West,260,0.0,0.0,53,-99.99,,,-99.99,,2013-10-21 04:24:00,
2013-10-20 23:53:00,58.0,43.0,-100.00,West,275,0.0,0.0,56,-99.99,,,-99.99,,2013-10-21 04:53:00,